Nellis Air Force Base
KLSV : now visible

Airfield :











YOU CAN JOIN US ON...

 
LOGIN :

Register | Disclaimer

   EN    FR    IT 

 









Legend :    VFR   Marginal VFR   IFR   Intensive IFR   Very Intensive IFR
Visi :
Ceiling :
>= 8 km
>= 3000ft
5 to 8 km
1000 to 3000 ft
1500m to 5 km
500 to 1000 ft
800 to 1500m
200 to 500 ft
< 800m
< 200 ft
Symbols :   Thunderstorms  Fog  Heavy snow  Heavy precipitations  Wind > 20 kt






- Airport Elevation : 1870 ft


KLSV - Nellis Air Force Base

CURRENT METAR :
  • 141858Z AUTO 12004KT 10SM CLR 40/06 A2993 RMK AO2 SLP104 T04010064 $

EXPIRED METARs :
  • 141758Z AUTO 00000KT 10SM CLR 38/06 A2995 RMK AO2 SLP112 T03840062 10384 20259 50002 $
  • 141658Z AUTO 00000KT 10SM CLR 36/07 A2996 RMK AO2 SLP117 T03580069 $

TAF TAF KLSV
Valid from the 14 at 15:00 until the 15 at 21:00 UTC


141500Z 1415/1521 VRB06KT 9999 FEW180 QNH2986INS
BECMG 1417/1418 14012KT 9999 FEW210 QNH2979INS
BECMG 1421/1422 27010G15KT 9999 FEW210 QNH2984INS
BECMG 1511/1512 VRB06KT 9999 FEW250 QNH2987INS TX42/1423Z TN27/1513Z
KZLA FIR / North America



MET'MAP, your aeronautical weather chart ! - Copyright ORBIFLY December 2007 - Disclaimer

ORBIFLY MET'MAP TEAM :

Programming & Development : Alexandra Zaïnal
Concept & original design : Baudouin d'Aumeries
Assistance for programming : Marc-Olivier Méhu
Technical & hardware support : Manuel Goepfert

Contact : metmap@orbifly.com




SOURCES & CREDITS :

   NOAA       Earth
Advisory